Flight Track Log - Related Links

Times and Time Zones

All times are in EDT time to prevent confusion due to time zone crossing. See the UAL906 flight status page for this flight to view local times or setup timezone preferences in your user account.

Time Position Orientation Groundspeed Altitude Reporting Facility
EDT Latitude Longitude Course Direction KTS MPH feet Rate Location/Type
Wed 06:55:30 PM 41.9790 -87.9160 320° Northwest 15 17  Level FlightAware ADS-B
Wed 06:55:56 PM 41.9800 -87.9180 304° West 17 20 76 Level FlightAware ADS-B
Wed 06:56:10 PM 41.9820 -87.9180 360° North 18 21 78 Level FlightAware ADS-B
Wed 06:56:40 PM 41.9840 -87.9180 360° North 18 21 79 Level FlightAware ADS-B
Wed 06:57:04 PM 41.9860 -87.9180 360° North 16 18 81 Level FlightAware ADS-B
Wed 06:57:32 PM 41.9870 -87.9170 37° Northeast 29 33 83 Level FlightAware ADS-B
Wed 06:58:15 PM 41.9870 -87.9150 90° East 25 29 86 Level FlightAware ADS-B
Wed 06:58:31 PM 41.9880 -87.9150 360° North 30 35 89 Level FlightAware ADS-B
Wed 06:59:01 PM 41.9900 -87.9140 20° North 33 38 91 Level FlightAware ADS-B
Wed 06:59:26 PM 41.9910 -87.9130 37° Northeast 17 20 94 Level FlightAware ADS-B
Wed 06:59:57 PM 41.9930 -87.9110 37° Northeast 16 18 97 Level FlightAware ADS-B
Wed 07:00:20 PM 41.9940 -87.9100 37° Northeast 25 29 100 Level FlightAware ADS-B
Wed 07:00:48 PM 41.9950 -87.9090 37° Northeast 15 17 103 Level FlightAware ADS-B
Wed 07:03:00 PM 42.2611 -87.8074 14° North  Level FlightAware Approximate
Wed 07:04:00 PM 42.3856 -87.7659 14° North  Level FlightAware Approximate
Wed 07:05:00 PM 42.5104 -87.7256 12° North  Level FlightAware Approximate
Wed 07:06:00 PM 42.6359 -87.6892 12° North  Level FlightAware Approximate
Wed 07:07:00 PM 42.7613 -87.6516 12° North  Level FlightAware Approximate
Wed 07:09:00 PM 42.2277 -87.8195 20° North  Level FlightAware Approximate
Wed 07:09:21 PM 41.9960 -87.9100 20° North 2 2  Level FlightAware ADS-B
Wed 07:09:55 PM 41.9970 -87.9110 323° Northwest 16 18 308 Level FlightAware ADS-B
Wed 07:10:52 PM 42.0000 -87.9150 315° West 18 21 351 Level FlightAware ADS-B
Wed 07:11:02 PM 42.0010 -87.9160 323° Northwest 34 39 462 Level FlightAware ADS-B
Wed 07:12:17 PM 42.0020 -87.9150 37° Northeast 17 20 488 Level FlightAware ADS-B
Wed 07:13:01 PM 42.0010 -87.9130 124° Southeast 49 56 866 Level FlightAware ADS-B
Wed 07:13:27 PM 41.9910 -87.9020 141° Southeast 155 178 1,585 Level FlightAware ADS-B
Wed 07:13:54 PM 41.9750 -87.8800 134° Southeast 179 206 1,400 2,933 Climbing FlightAware ADS-B
Wed 07:14:12 PM 41.9700 -87.8610 109° East 181 208 2,200 1,756 Climbing FlightAware ADS-B
Wed 07:14:35 PM 41.9670 -87.8340 98° East 210 242 2,600 1,765 Climbing FlightAware ADS-B
Wed 07:15:03 PM 41.9620 -87.7950 100° East 227 261 3,700 2,105 Climbing FlightAware ADS-B
Wed 07:15:32 PM 41.9580 -87.7520 97° East 256 295 4,600 1,418 Climbing FlightAware ADS-B
Wed 07:15:58 PM 41.9540 -87.7090 97° East 263 303 5,000 913 Climbing FlightAware ADS-B
Wed 07:16:18 PM 41.9580 -87.6760 81° East 263 303 5,300 1,355 Climbing FlightAware ADS-B
Wed 07:16:29 PM 41.9610 -87.6600 76° East 267 307 5,700 2,550 Climbing FlightAware ADS-B
Wed 07:16:58 PM 41.9690 -87.6120 77° East 274 315 7,000 2,632 Climbing FlightAware ADS-B
Wed 07:17:26 PM 41.9860 -87.5700 61° Northeast 281 323 8,200 2,700 Climbing FlightAware ADS-B
Wed 07:17:38 PM 41.9990 -87.5580 34° Northeast 276 318 8,800 2,769 Climbing FlightAware ADS-B
Wed 07:17:52 PM 42.0170 -87.5550 North 276 318 9,400 2,455 Climbing FlightAware ADS-B
Wed 07:18:22 PM 42.0500 -87.5730 338° Northwest 281 323 10,600 2,545 Climbing FlightAware ADS-B
Wed 07:18:58 PM 42.0880 -87.6140 321° Northwest 288 331 12,200 2,415 Climbing FlightAware ADS-B
Wed 07:19:44 PM 42.1360 -87.6600 325° Northwest 297 342 13,900 2,226 Climbing FlightAware ADS-B
Wed 07:20:00 PM 42.1600 -87.6690 344° North 314 361 14,500 1,953 Climbing FlightAware ADS-B
Wed 07:20:27 PM 42.2010 -87.6670 North 335 386 15,300 1,292 Climbing FlightAware ADS-B
Wed 07:21:05 PM 42.2650 -87.6620 North 367 422 15,900 1,059 Climbing FlightAware ADS-B
Wed 07:21:52 PM 42.3480 -87.6590 North 402 463 16,800 1,451 Climbing FlightAware ADS-B
Wed 07:22:36 PM 42.4320 -87.6550 North 418 481 18,100 1,950 Climbing FlightAware ADS-B
Wed 07:23:12 PM 42.4990 -87.6510 North 416 479 19,400 1,880 Climbing FlightAware ADS-B
Wed 07:23:59 PM 42.5930 -87.6460 North 433 498 20,700 1,465 Climbing FlightAware ADS-B
Wed 07:24:38 PM 42.6720 -87.6420 North 445 512 21,500 1,229 Climbing FlightAware ADS-B
Wed 07:25:22 PM 42.7650 -87.6360 North 461 531 22,400 1,407 Climbing FlightAware ADS-B
Wed 07:25:59 PM 42.8350 -87.6090 16° North 474 545 23,400 1,535 Climbing FlightAware ADS-B
Wed 07:26:48 PM 42.9150 -87.4950 46° Northeast 490 564 24,600 1,157 Climbing FlightAware ADS-B
Wed 07:27:22 PM 42.9650 -87.4150 49° Northeast 499 574 25,000 825 Climbing FlightAware ADS-B
Wed 07:28:08 PM 43.0360 -87.3040 49° Northeast 502 578 25,700 1,103 Climbing FlightAware ADS-B
Wed 07:28:49 PM 43.0990 -87.2040 49° Northeast 510 587 26,600 805 Climbing FlightAware ADS-B
Wed 07:29:30 PM 43.1490 -87.1230 50° Northeast 511 588 26,800 1,341 Climbing FlightAware ADS-B
Wed 07:30:14 PM 43.2310 -86.9930 49° Northeast 516 594 28,500 1,857 Climbing FlightAware ADS-B
Wed 07:30:54 PM 43.2930 -86.8940 49° Northeast 515 593 29,400 1,241 Climbing FlightAware ADS-B
Wed 07:31:41 PM 43.3660 -86.7770 49° Northeast 518 596 30,300 1,116 Climbing FlightAware ADS-B
Wed 07:32:20 PM 43.4270 -86.6780 50° Northeast 525 604 31,000 1,129 Climbing FlightAware ADS-B
Wed 07:33:06 PM 43.4990 -86.5600 50° Northeast 525 604 31,900 1,129 Climbing FlightAware ADS-B
Wed 07:33:45 PM 43.5590 -86.4620 50° Northeast 525 604 32,600 786 Climbing FlightAware ADS-B
Wed 07:34:30 PM 43.6310 -86.3450 50° Northeast 529 609 33,000 296 Climbing FlightAware ADS-B
Wed 07:35:06 PM 43.6880 -86.2510 50° Northeast 531 611 33,000  Level FlightAware ADS-B
Wed 07:35:53 PM 43.7590 -86.1340 50° Northeast 529 609 33,000  Level FlightAware ADS-B
Wed 07:36:33 PM 43.8220 -86.0290 50° Northeast 527 606 33,000  Level FlightAware ADS-B
Wed 07:37:13 PM 43.8840 -85.9260 50° Northeast 525 604 33,000  Level FlightAware ADS-B
Wed 07:38:00 PM 43.9500 -85.7950 55° Northeast 524 603 33,000  Level FlightAware ADS-B
Wed 07:38:41 PM 43.9950 -85.6720 63° Northeast 522 601 33,000  Level FlightAware ADS-B
Wed 07:39:18 PM 44.0310 -85.5580 66° East 523 602 33,000  Level FlightAware ADS-B
Wed 07:40:06 PM 44.0780 -85.4100 66° East 525 604 33,000  Level FlightAware ADS-B
Wed 07:40:45 PM 44.1160 -85.2900 66° East 527 606 33,000  Level FlightAware ADS-B
Wed 07:41:29 PM 44.1600 -85.1530 66° East 531 611 33,000  Level FlightAware ADS-B
Wed 07:42:12 PM 44.2030 -85.0150 66° East 534 615 33,000  Level FlightAware ADS-B
Wed 07:42:50 PM 44.2410 -84.8960 66° East 536 617 33,000  Level FlightAware ADS-B
Wed 07:43:33 PM 44.2820 -84.7620 67° East 539 620 33,000  Level FlightAware ADS-B
Wed 07:44:16 PM 44.3250 -84.6230 67° East 540 621 33,000  Level FlightAware ADS-B
Wed 07:44:59 PM 44.3670 -84.4880 66° East 541 623 33,000  Level FlightAware ADS-B
Wed 07:45:42 PM 44.4100 -84.3470 67° East 540 621 33,000  Level FlightAware ADS-B
Wed 07:46:21 PM 44.4470 -84.2240 67° East 541 623 33,000  Level FlightAware ADS-B
Wed 07:47:06 PM 44.4920 -84.0770 67° East 539 620 33,000  Level FlightAware ADS-B
Wed 07:47:43 PM 44.5270 -83.9590 67° East 539 620 33,000  Level FlightAware ADS-B
Wed 07:48:26 PM 44.5680 -83.8230 67° East 537 618 33,000  Level FlightAware ADS-B
Wed 07:49:11 PM 44.6110 -83.6780 67° East 535 616 33,000  Level FlightAware ADS-B
Wed 07:49:49 PM 44.6470 -83.5570 67° East 533 613 33,000  Level FlightAware ADS-B
Wed 07:50:16 PM 44.6720 -83.4720 68° East 532 612 33,000  Level FlightAware ADS-B
Wed 07:51:03 PM 44.7150 -83.3240 68° East 531 611 33,000  Level FlightAware ADS-B
Wed 07:51:44 PM 44.7540 -83.1900 68° East 531 611 33,000  Level FlightAware ADS-B
Wed 07:52:25 PM 44.7920 -83.0600 68° East 532 612 33,000  Level FlightAware ADS-B
Wed 07:53:10 PM 44.8350 -82.9120 68° East 533 613 33,000  Level FlightAware ADS-B
Wed 07:53:48 PM 44.8700 -82.7910 68° East 534 615 33,000  Level FlightAware ADS-B
Wed 07:54:29 PM 44.9070 -82.6610 68° East 536 617 33,000  Level FlightAware ADS-B
Wed 07:55:10 PM 44.9450 -82.5270 68° East 538 619 33,000  Level FlightAware ADS-B
Wed 07:55:56 PM 44.9880 -82.3740 68° East 540 621 33,000  Level FlightAware ADS-B
Wed 07:56:38 PM 45.0260 -82.2370 69° East 540 621 33,000  Level FlightAware ADS-B
Wed 07:57:20 PM 45.0650 -82.0980 68° East 542 624 33,000  Level FlightAware ADS-B
Wed 07:58:01 PM 45.1020 -81.9660 68° East 544 626 33,000  Level FlightAware ADS-B
Wed 07:58:43 PM 45.1390 -81.8320 69° East 545 627 33,000  Level FlightAware ADS-B
Wed 07:59:26 PM 45.1790 -81.6840 69° East 545 627 33,000  Level FlightAware ADS-B
Wed 08:00:04 PM 45.2140 -81.5570 69° East 546 628 33,000  Level FlightAware ADS-B
Wed 08:01:04 PM 45.2690 -81.3540 69° East 548 631 33,000  Level FlightAware ADS-B
Wed 08:01:48 PM 45.3080 -81.2080 69° East 549 632 33,000  Level FlightAware ADS-B
Wed 08:02:27 PM 45.3430 -81.0770 69° East 548 631 33,000  Level FlightAware ADS-B
Wed 08:03:10 PM 45.3800 -80.9400 69° East 549 632 33,000  Level FlightAware ADS-B
Wed 08:03:55 PM 45.4200 -80.7880 69° East 550 633 33,000  Level FlightAware ADS-B
Wed 08:04:35 PM 45.4550 -80.6530 70° East 549 632 33,000  Level FlightAware ADS-B
Wed 08:05:10 PM 45.4840 -80.5430 69° East 549 632 33,000  Level FlightAware ADS-B
Wed 08:06:00 PM 45.5300 -80.3680 69° East 547 629 33,000  Level FlightAware ADS-B
Wed 08:06:40 PM 45.5620 -80.2410 70° East 545 627 33,000  Level FlightAware ADS-B
Wed 08:07:20 PM 45.5960 -80.1120 69° East 541 623 33,000  Level FlightAware ADS-B
Wed 08:08:00 PM 45.6310 -79.9720 70° East 539 620 33,000  Level FlightAware ADS-B
Wed 08:08:45 PM 45.6710 -79.8140 70° East 536 617 33,000  Level FlightAware ADS-B
Wed 08:09:25 PM 45.7050 -79.6800 70° East 535 616 33,000  Level FlightAware ADS-B
Wed 08:10:10 PM 45.7420 -79.5320 70° East 535 616 33,000  Level FlightAware ADS-B
Wed 08:10:45 PM 45.7720 -79.4150 70° East 534 615 33,000  Level FlightAware ADS-B
Wed 08:11:36 PM 45.8100 -79.2630 70° East 535 616 33,000  Level FlightAware ADS-B
Wed 08:12:16 PM 45.8450 -79.1150 71° East 537 618 33,000  Level FlightAware ADS-B
Wed 08:12:55 PM 45.8780 -78.9820 70° East 539 620 33,000  Level FlightAware ADS-B
Wed 08:13:40 PM 45.9150 -78.8270 71° East 542 624 33,000  Level FlightAware ADS-B
Wed 08:14:21 PM 45.9470 -78.6970 70° East 543 625 33,000  Level FlightAware ADS-B
Wed 08:15:05 PM 45.9820 -78.5490 71° East 545 627 33,000  Level FlightAware ADS-B
Wed 08:15:43 PM 46.0110 -78.4300 71° East 545 627 33,000  Level FlightAware ADS-B
Wed 08:16:24 PM 46.0430 -78.2930 71° East 547 629 33,000  Level FlightAware ADS-B
Wed 08:17:10 PM 46.0860 -78.1110 71° East 548 631 33,000  Level FlightAware ADS-B
Wed 08:17:50 PM 46.1180 -77.9740 71° East 547 629 33,000  Level FlightAware ADS-B
Wed 08:18:44 PM 46.1530 -77.8240 71° East 546 628 33,000  Level FlightAware ADS-B
Wed 08:19:32 PM 46.1870 -77.6830 71° East 546 628 33,000  Level FlightAware ADS-B
Wed 08:20:09 PM 46.2130 -77.5750 71° East 546 628 33,000  Level FlightAware ADS-B
Wed 08:20:56 PM 46.2620 -77.3470 73° East 538 619 33,000  Level FlightAware ADS-B
Wed 08:21:35 PM 46.2920 -77.2100 72° East 534 615 33,000  Level FlightAware ADS-B
Wed 08:22:34 PM 46.3310 -77.0360 72° East 531 611 33,000  Level FlightAware ADS-B
Wed 08:23:11 PM 46.3550 -76.9300 72° East 531 611 33,000  Level FlightAware ADS-B
Wed 08:23:58 PM 46.3860 -76.7950 72° East 531 611 33,000  Level FlightAware ADS-B
Wed 08:24:38 PM 46.4110 -76.6790 73° East 531 611 33,000  Level FlightAware ADS-B
Wed 08:25:35 PM 46.4480 -76.5150 72° East 531 611 33,000  Level FlightAware ADS-B
Wed 08:26:14 PM 46.5000 -76.2630 73° East 529 609 33,000  Level FlightAware ADS-B
Wed 08:26:54 PM 46.5280 -76.1360 72° East 531 611 33,000  Level FlightAware ADS-B
Wed 08:27:39 PM 46.5610 -75.9760 73° East 534 615 33,000  Level FlightAware ADS-B
Wed 08:28:19 PM 46.5920 -75.8320 73° East 537 618 33,000  Level FlightAware ADS-B
Wed 08:28:59 PM 46.6190 -75.7010 73° East 539 620 33,000  Level FlightAware ADS-B
Wed 08:29:49 PM 46.6560 -75.5220 73° East 541 623 33,000  Level FlightAware ADS-B
Wed 08:30:29 PM 46.6860 -75.3800 73° East 543 625 33,000  Level FlightAware ADS-B
Wed 08:31:10 PM 46.7140 -75.2410 74° East 543 625 33,000  Level FlightAware ADS-B
Wed 08:31:49 PM 46.7410 -75.1070 74° East 544 626 33,000  Level FlightAware ADS-B
Wed 08:32:31 PM 46.7710 -74.9610 73° East 544 626 33,000  Level FlightAware ADS-B
Wed 08:33:09 PM 46.7960 -74.8350 74° East 544 626 33,000  Level FlightAware ADS-B
Wed 08:33:54 PM 46.8220 -74.7040 74° East 543 625 33,000  Level FlightAware ADS-B
Wed 08:34:39 PM 46.8620 -74.5040 74° East 541 623 33,000  Level FlightAware ADS-B
Wed 08:35:24 PM 46.8930 -74.3430 74° East 540 621 33,000  Level FlightAware ADS-B
Wed 08:36:00 PM 46.9170 -74.2230 74° East 540 621 33,000  Level FlightAware ADS-B
Wed 08:36:53 PM 46.9530 -74.0320 74° East 538 619 33,000  Level FlightAware ADS-B
Wed 08:37:38 PM 46.9830 -73.8740 74° East 537 618 33,000  Level FlightAware ADS-B
Wed 08:38:18 PM 47.0100 -73.7350 74° East 536 617 33,000  Level FlightAware ADS-B
Wed 08:38:56 PM 47.0330 -73.6130 74° East 534 615 33,000  Level FlightAware ADS-B
Wed 08:39:43 PM 47.0650 -73.4390 75° East 532 612 33,000  Level FlightAware ADS-B
Wed 08:40:23 PM 47.0910 -73.3010 74° East 533 613 33,000  Level FlightAware ADS-B
Wed 08:41:03 PM 47.1150 -73.1660 75° East 532 612 33,000  Level FlightAware ADS-B
Wed 08:41:43 PM 47.1420 -73.0220 75° East 533 613 33,000  Level FlightAware ADS-B
Wed 08:42:23 PM 47.1660 -72.8850 76° East 532 612 33,000  Level FlightAware ADS-B
Wed 08:43:03 PM 47.1920 -72.7460 75° East 533 613 33,000  Level FlightAware ADS-B
Wed 08:43:48 PM 47.2190 -72.5890 76° East 532 612 33,000  Level FlightAware ADS-B
Wed 08:44:28 PM 47.2440 -72.4500 75° East 530 610 33,000  Level FlightAware ADS-B
Wed 08:45:13 PM 47.2710 -72.2930 76° East 527 606 33,000  Level FlightAware ADS-B
Wed 08:45:53 PM 47.2950 -72.1550 76° East 525 604 33,000  Level FlightAware ADS-B
Wed 08:46:38 PM 47.3220 -72.0000 76° East 522 601 33,000  Level FlightAware ADS-B
Wed 08:47:18 PM 47.3450 -71.8670 76° East 520 598 33,000  Level FlightAware ADS-B
Wed 08:47:58 PM 47.3690 -71.7260 76° East 518 596 33,000  Level FlightAware ADS-B
Wed 08:48:43 PM 47.3940 -71.5740 76° East 515 593 33,000  Level FlightAware ADS-B
Wed 08:49:23 PM 47.4170 -71.4380 76° East 513 590 33,000  Level FlightAware ADS-B
Wed 08:50:08 PM 47.4420 -71.2860 76° East 512 589 33,000  Level FlightAware ADS-B
Wed 08:51:13 PM 47.4750 -71.0820 76° East 510 587 33,000  Level FlightAware ADS-B
Wed 08:51:58 PM 47.5020 -70.9140 77° East 509 586 33,000  Level FlightAware ADS-B
Wed 08:52:38 PM 47.5240 -70.7800 76° East 508 585 33,000  Level FlightAware ADS-B
Wed 08:53:23 PM 47.5480 -70.6270 77° East 510 587 33,000  Level FlightAware ADS-B
Wed 08:54:03 PM 47.5690 -70.4950 77° East 509 586 33,000  Level FlightAware ADS-B
Wed 08:54:38 PM 47.5870 -70.3760 77° East 510 587 33,000  Level FlightAware ADS-B
Wed 08:56:07 PM 47.6350 -70.0700 77° East 514 592 33,000  Level FlightAware ADS-B
Wed 08:56:52 PM 47.6580 -69.9200 77° East 515 593 33,000  Level FlightAware ADS-B
Wed 08:57:34 PM 47.6770 -69.7890 78° East 518 596 33,000  Level FlightAware ADS-B
Wed 08:58:08 PM 47.6900 -69.7030 77° East 519 597 33,000  Level FlightAware ADS-B
Wed 08:58:53 PM 47.7210 -69.4960 77° East 522 601 33,000  Level FlightAware ADS-B
Wed 08:59:38 PM 47.7440 -69.3390 78° East 522 601 33,000  Level FlightAware ADS-B
Wed 09:00:18 PM 47.7640 -69.2000 78° East 523 602 33,000  Level FlightAware ADS-B
Wed 09:00:58 PM 47.7840 -69.0590 78° East 523 602 33,000  Level FlightAware ADS-B
Wed 09:01:43 PM 47.8040 -68.9150 78° East 525 604 33,000  Level FlightAware ADS-B
Wed 09:02:26 PM 47.8250 -68.7700 78° East 525 604 33,000  Level FlightAware ADS-B
Wed 09:03:10 PM 47.8470 -68.6130 78° East 525 604 33,000  Level FlightAware ADS-B
Wed 09:03:52 PM 47.8700 -68.4490 78° East 524 603 33,000  Level FlightAware ADS-B
Wed 09:04:48 PM 47.8920 -68.2910 78° East 525 604 33,000  Level FlightAware ADS-B
Wed 09:05:50 PM 47.9240 -68.0490 79° East 524 603 33,000  Level FlightAware ADS-B
Wed 09:06:40 PM 47.9450 -67.8980 78° East 524 603 33,000  Level FlightAware ADS-B
Wed 09:07:18 PM 47.9610 -67.7840 78° East 524 603 33,000  Level FlightAware ADS-B
Wed 09:07:55 PM 47.9770 -67.6730 78° East 524 603 33,000  Level FlightAware ADS-B
Wed 09:08:47 PM 47.9990 -67.5160 78° East 524 603 33,000  Level FlightAware ADS-B
Wed 09:09:24 PM 48.0150 -67.4050 78° East 524 603 33,000  Level FlightAware ADS-B
Wed 09:10:12 PM 48.0360 -67.2600 78° East 524 603 33,000  Level FlightAware ADS-B
Wed 09:10:48 PM 48.0510 -67.1510 78° East 524 603 33,000  Level FlightAware ADS-B
Wed 09:11:24 PM 48.0670 -67.0430 77° East 524 603 33,000  Level FlightAware ADS-B
Wed 09:12:13 PM 48.0880 -66.8950 78° East 524 603 33,000  Level FlightAware ADS-B
Wed 09:12:49 PM 48.1030 -66.7860 78° East 524 603 33,000  Level FlightAware ADS-B
Wed 09:13:37 PM 48.1240 -66.6410 78° East 524 603 33,000  Level FlightAware ADS-B
Wed 09:14:14 PM 48.1390 -66.5300 79° East 524 603 33,000  Level FlightAware ADS-B
Wed 09:15:15 PM 48.1660 -66.3450 78° East 524 603 33,000  Level FlightAware ADS-B
Wed 09:15:32 PM 48.1667 -65.9167 78° East 540 621 33,000  Level Montreal Center
Wed 09:15:47 PM 48.1667 -65.9000 90° East 540 621 33,000  Level Gander Center
Wed 09:16:47 PM 48.2000 -65.6500 79° East 540 621 33,000  Level Gander Center
Wed 09:17:47 PM 48.2167 -65.4500 83° East 540 621 33,000  Level Gander Center
Wed 09:18:47 PM 48.2500 -65.2167 78° East 540 621 33,000  Level Gander Center
Wed 09:19:47 PM 48.2667 -65.0000 83° East 550 633 33,000  Level Gander Center
Wed 09:20:47 PM 48.3000 -64.7667 78° East 550 633 33,000  Level Gander Center
Wed 09:21:47 PM 48.3167 -64.5500 83° East 550 633 33,000  Level Gander Center
Wed 09:22:47 PM 48.3333 -64.3167 84° East 550 633 33,000  Level Gander Center
Wed 09:23:47 PM 48.3667 -64.0667 79° East 540 621 33,000  Level Gander Center
Wed 09:24:47 PM 48.3833 -63.8667 83° East 530 610 33,000  Level Gander Center
Wed 09:25:47 PM 48.4000 -63.6500 83° East 530 610 33,000  Level Gander Center
Wed 09:26:47 PM 48.4333 -63.4167 78° East 530 610 33,000  Level Gander Center
Wed 09:27:47 PM 48.4500 -63.2167 83° East 530 610 33,000  Level Gander Center
Wed 09:28:47 PM 48.4667 -63.0000 83° East 530 610 33,000  Level Gander Center
Wed 09:29:47 PM 48.4833 -62.7500 84° East 540 621 33,000  Level Gander Center
Wed 09:30:47 PM 48.5000 -62.5500 83° East 540 621 33,000  Level Gander Center
Wed 09:31:47 PM 48.5333 -62.3167 78° East 540 621 33,000  Level Gander Center
Wed 09:32:47 PM 48.5500 -62.0833 84° East 540 621 33,000  Level Gander Center
Wed 09:33:47 PM 48.5667 -61.8667 83° East 540 621 33,000  Level Gander Center
Wed 09:34:47 PM 48.5833 -61.6333 84° East 540 621 33,000  Level Gander Center
Wed 09:35:47 PM 48.6000 -61.4167 83° East 540 621 33,000  Level Gander Center
Wed 09:36:47 PM 48.6167 -61.1833 84° East 540 621 33,000  Level Gander Center
Wed 09:37:47 PM 48.6333 -60.9500 84° East 540 621 33,000  Level Gander Center
Wed 09:38:47 PM 48.6500 -60.7333 83° East 540 621 33,000 28 Level Gander Center
Wed 09:44:53 PM 48.7350 -59.4100 83° East 535 616 33,200 261 Climbing FlightAware ADS-B
Wed 09:46:03 PM 48.7500 -59.1190 85° East 528 608 34,900 1,255 Climbing FlightAware ADS-B
Wed 09:46:43 PM 48.7580 -58.9670 85° East 527 606 35,500 825 Climbing FlightAware ADS-B
Wed 09:47:23 PM 48.7650 -58.8230 86° East 527 606 36,000 375 Climbing FlightAware ADS-B
Wed 09:48:03 PM 48.7730 -58.6750 85° East 524 603 36,000  Level FlightAware ADS-B
Wed 09:48:48 PM 48.7810 -58.5100 86° East 520 598 36,000  Level FlightAware ADS-B
Wed 09:49:28 PM 48.7870 -58.3660 86° East 520 598 36,000  Level FlightAware ADS-B
Wed 09:50:13 PM 48.7950 -58.2030 86° East 521 600 36,000  Level FlightAware ADS-B
Wed 09:51:08 PM 48.8120 -58.0080 82° East 521 600 36,000  Level FlightAware ADS-B
Wed 09:51:48 PM 48.8360 -57.8650 76° East 521 600 36,000  Level FlightAware ADS-B
Wed 09:52:33 PM 48.8650 -57.7050 75° East 527 606 36,000  Level FlightAware ADS-B
Wed 09:53:14 PM 48.8880 -57.5800 74° East 530 610 36,000  Level FlightAware ADS-B
Wed 09:53:53 PM 48.9160 -57.4240 75° East 533 613 36,000  Level FlightAware ADS-B
Wed 09:54:38 PM 48.9470 -57.2540 74° East 537 618 36,000  Level FlightAware ADS-B
Wed 09:55:36 PM 48.9830 -57.0600 74° East 533 613 36,000  Level FlightAware ADS-B
Wed 09:56:12 PM 49.0090 -56.9130 75° East 532 612 36,000  Level FlightAware ADS-B
Wed 09:56:58 PM 49.0380 -56.7480 75° East 532 612 36,000  Level FlightAware ADS-B
Wed 09:57:42 PM 49.0670 -56.5850 75° East 534 615 36,000  Level FlightAware ADS-B
Wed 09:58:23 PM 49.0920 -56.4410 75° East 534 615 36,000  Level FlightAware ADS-B
Wed 09:59:03 PM 49.1160 -56.3030 75° East 534 615 36,000  Level FlightAware ADS-B
Wed 09:59:43 PM 49.1420 -56.1500 75° East 536 617 36,000  Level FlightAware ADS-B
Wed 10:00:07 PM 49.1580 -56.0580 75° East 536 617 36,000  Level FlightAware ADS-B
Wed 10:00:53 PM 49.1850 -55.8960 76° East 537 618 36,000  Level FlightAware ADS-B
Wed 10:01:38 PM 49.2140 -55.7270 75° East 538 619 36,000  Level FlightAware ADS-B
Wed 10:02:18 PM 49.2380 -55.5800 76° East 540 621 36,000  Level FlightAware ADS-B
Wed 10:03:02 PM 49.2650 -55.4130 76° East 539 620 36,000  Level FlightAware ADS-B
Wed 10:03:43 PM 49.2890 -55.2670 76° East 540 621 36,000  Level FlightAware ADS-B
Wed 10:04:28 PM 49.3160 -55.0980 76° East 541 623 36,000  Level FlightAware ADS-B
Wed 10:05:08 PM 49.3400 -54.9500 76° East 541 623 36,000  Level FlightAware ADS-B
Wed 10:05:47 PM 49.3640 -54.8030 76° East 540 621 36,000  Level FlightAware ADS-B
Wed 10:06:33 PM 49.3900 -54.6340 77° East 539 620 36,000  Level FlightAware ADS-B
Wed 10:07:13 PM 49.4130 -54.4850 77° East 537 618 36,000  Level FlightAware ADS-B
Wed 10:07:57 PM 49.4370 -54.3220 77° East 536 617 36,000  Level FlightAware ADS-B
Wed 10:08:38 PM 49.4600 -54.1710 77° East 533 613 36,000  Level FlightAware ADS-B
Wed 10:09:18 PM 49.4820 -54.0240 77° East 532 612 36,000  Level FlightAware ADS-B
Wed 10:09:57 PM 49.5030 -53.8770 78° East 530 610 36,000  Level FlightAware ADS-B
Wed 10:10:43 PM 49.5270 -53.7120 77° East 528 608 36,000  Level FlightAware ADS-B
Wed 10:11:22 PM 49.5480 -53.5670 77° East 526 605 36,000  Level FlightAware ADS-B
Wed 10:12:07 PM 49.5710 -53.4030 78° East 522 601 36,000  Level FlightAware ADS-B
Wed 10:12:53 PM 49.5940 -53.2420 78° East 522 601 36,000  Level FlightAware ADS-B
Wed 10:13:28 PM 49.6120 -53.1130 78° East 521 600 36,000  Level FlightAware ADS-B
Wed 10:14:13 PM 49.6350 -52.9490 78° East 520 598 36,000  Level FlightAware ADS-B
Wed 10:14:58 PM 49.6570 -52.7880 78° East 518 596 36,000  Level FlightAware ADS-B
Wed 10:16:08 PM 49.6910 -52.5380 78° East 517 595 36,000  Level FlightAware ADS-B
Wed 10:16:48 PM 49.7090 -52.3970 79° East 517 595 36,000  Level FlightAware ADS-B
Wed 10:17:27 PM 49.7290 -52.2500 78° East 517 595 36,000  Level FlightAware ADS-B
Wed 10:18:09 PM 49.7480 -52.1020 79° East 517 595 36,000  Level FlightAware ADS-B
Wed 10:18:53 PM 49.7670 -51.9560 79° East 517 595 36,000  Level FlightAware ADS-B
Wed 10:19:34 PM 49.7860 -51.8080 79° East 517 595 36,000  Level FlightAware ADS-B
Wed 10:20:19 PM 49.8080 -51.6250 79° East 514 592 36,000  Level FlightAware ADS-B
Wed 10:21:12 PM 49.8200 -51.4340 84° East 513 590 36,000  Level FlightAware ADS-B
Wed 10:22:00 PM 49.8330 -51.2960 82° East 514 592 36,000  Level FlightAware ADS-B
Wed 10:22:38 PM 49.8450 -51.1780 81° East 514 592 36,000  Level FlightAware ADS-B
Wed 10:23:24 PM 49.8600 -51.0360 81° East 514 592 36,000  Level FlightAware ADS-B
Wed 10:24:00 PM 49.8710 -50.9240 81° East 514 592 36,000  Level FlightAware ADS-B
Wed 10:25:01 PM 49.8910 -50.7350 81° East 514 592 36,000  Level FlightAware ADS-B
Wed 10:25:37 PM 49.9020 -50.6240 81° East 514 592 36,000  Level FlightAware ADS-B
Wed 10:26:25 PM 49.9170 -50.4750 81° East 514 592 36,000  Level FlightAware ADS-B
Wed 10:27:02 PM 49.9290 -50.3600 81° East 514 592 36,000  Level FlightAware ADS-B
Wed 10:27:50 PM 49.9440 -50.2110 81° East 514 592 36,000  Level FlightAware ADS-B
Wed 10:28:26 PM 49.9550 -50.0990 81° East 514 592 36,000  Level FlightAware ADS-B
Wed 10:29:14 PM 49.9700 -49.9500 81° East 514 592 36,000  Level FlightAware ADS-B
Wed 10:29:50 PM 49.9820 -49.8390 80° East 514 592 36,000  Level FlightAware ADS-B
Wed 10:30:51 PM 50.0010 -49.6490 81° East 514 592 36,000  Level FlightAware ADS-B
Wed 10:31:47 PM 50.1667 -49.0500 81° East 520 598 36,000  Level Gander Center
Wed 10:32:47 PM 50.2333 -48.8500 62° Northeast 520 598 36,000  Level Gander Center
Wed 10:33:47 PM 50.2833 -48.6333 70° East 520 598 36,000  Level Gander Center
Wed 10:34:47 PM 50.3167 -48.4333 75° East 520 598 36,000  Level Gander Center
Wed 10:35:47 PM 50.3833 -48.2333 62° Northeast 520 598 36,000  Level Gander Center
Wed 10:36:47 PM 50.4333 -48.0333 69° East 520 598 36,000 Level Gander Center
Wed 10:38:00 PM 50.4815 -47.8345 69° East  Level FlightAware Approximate
Wed 10:45:00 PM 50.8089 -46.4312 69° East  Level FlightAware Approximate
Wed 10:46:00 PM 50.8543 -46.2291 70° East  Level FlightAware Approximate
Wed 10:47:00 PM 50.8994 -46.0267 70° East  Level FlightAware Approximate
Wed 10:48:00 PM 50.9440 -45.8238 71° East  Level FlightAware Approximate
Wed 10:49:00 PM 50.9884 -45.6206 71° East  Level FlightAware Approximate
Wed 10:50:00 PM 51.0324 -45.4170 71° East  Level FlightAware Approximate
Wed 10:51:00 PM 51.0760 -45.2130 71° East  Level FlightAware Approximate
Wed 10:52:00 PM 51.1185 -45.0082 72° East  Level FlightAware Approximate
Wed 10:53:00 PM 51.1596 -44.8025 72° East  Level FlightAware Approximate
Wed 10:54:00 PM 51.2004 -44.5965 72° East  Level FlightAware Approximate
Wed 10:55:00 PM 51.2408 -44.3900 73° East  Level FlightAware Approximate
Wed 10:56:00 PM 51.2809 -44.1833 73° East  Level FlightAware Approximate
Wed 10:57:00 PM 51.3205 -43.9761 73° East  Level FlightAware Approximate
Wed 10:58:00 PM 51.3593 -43.7714 73° East  Level FlightAware Approximate
Wed 10:59:00 PM 51.3978 -43.5664 73° East  Level FlightAware Approximate
Wed 11:00:00 PM 51.4358 -43.3610 73° East  Level FlightAware Approximate
Wed 11:01:00 PM 51.4736 -43.1553 74° East  Level FlightAware Approximate
Wed 11:02:00 PM 51.5109 -42.9492 74° East  Level FlightAware Approximate
Wed 11:03:00 PM 51.5479 -42.7428 74° East  Level FlightAware Approximate
Wed 11:04:00 PM 51.5845 -42.5361 74° East  Level FlightAware Approximate
Wed 11:05:00 PM 51.6208 -42.3290 74° East  Level FlightAware Approximate
Wed 11:06:00 PM 51.6567 -42.1216 74° East  Level FlightAware Approximate
Wed 11:07:00 PM 51.6922 -41.9139 74° East  Level FlightAware Approximate
Wed 11:08:00 PM 51.7274 -41.7059 75° East  Level FlightAware Approximate
Wed 11:09:00 PM 51.7622 -41.4975 75° East  Level FlightAware Approximate
Wed 11:10:00 PM 51.7966 -41.2888 75° East  Level FlightAware Approximate
Wed 11:11:00 PM 51.8307 -41.0798 75° East  Level FlightAware Approximate
Wed 11:12:00 PM 51.8644 -40.8705 75° East  Level FlightAware Approximate
Wed 11:13:00 PM 51.8977 -40.6609 75° East  Level FlightAware Approximate
Wed 11:14:00 PM 51.9307 -40.4509 76° East  Level FlightAware Approximate
Wed 11:15:00 PM 51.9632 -40.2407 76° East  Level FlightAware Approximate
Wed 11:16:00 PM 51.9954 -40.0305 76° East  Level FlightAware Approximate
Wed 11:17:00 PM 52.0077 -39.8152 86° East  Level FlightAware Approximate
Wed 11:18:00 PM 52.0163 -39.5990 86° East  Level FlightAware Approximate
Wed 11:19:00 PM 52.0246 -39.3827 86° East  Level FlightAware Approximate
Wed 11:20:00 PM 52.0324 -39.1663 87° East  Level FlightAware Approximate
Wed 11:21:00 PM 52.0399 -38.9499 87° East  Level FlightAware Approximate
Wed 11:22:00 PM 52.0469 -38.7333 87° East  Level FlightAware Approximate
Wed 11:23:00 PM 52.0536 -38.5168 87° East  Level FlightAware Approximate
Wed 11:24:00 PM 52.0598 -38.3001 87° East  Level FlightAware Approximate
Wed 11:25:00 PM 52.0657 -38.0834 87° East  Level FlightAware Approximate
Wed 11:26:00 PM 52.0712 -37.8666 88° East  Level FlightAware Approximate
Wed 11:27:00 PM 52.0762 -37.6498 88° East  Level FlightAware Approximate
Wed 11:28:00 PM 52.0809 -37.4330 88° East  Level FlightAware Approximate
Wed 11:29:00 PM 52.0852 -37.2161 88° East  Level FlightAware Approximate
Wed 11:30:00 PM 52.0890 -36.9991 88° East  Level FlightAware Approximate
Wed 11:31:00 PM 52.0925 -36.7821 88° East  Level FlightAware Approximate
Wed 11:32:00 PM 52.0956 -36.5651 89° East  Level FlightAware Approximate
Wed 11:33:00 PM 52.0982 -36.3481 89° East  Level FlightAware Approximate
Wed 11:34:00 PM 52.1005 -36.1310 89° East  Level FlightAware Approximate
Wed 11:35:00 PM 52.1024 -35.9140 89° East  Level FlightAware Approximate
Wed 11:36:00 PM 52.1039 -35.6968 89° East  Level FlightAware Approximate
Wed 11:37:00 PM 52.1050 -35.4797 89° East  Level FlightAware Approximate
Wed 11:38:00 PM 52.1056 -35.2626 90° East  Level FlightAware Approximate
Wed 11:39:00 PM 52.1059 -35.0455 90° East  Level FlightAware Approximate
Wed 11:40:00 PM 52.1058 -34.8284 90° East  Level FlightAware Approximate
Wed 11:41:00 PM 52.1053 -34.6112 90° East  Level FlightAware Approximate
Wed 11:42:00 PM 52.1044 -34.3941 90° East  Level FlightAware Approximate
Wed 11:43:00 PM 52.1031 -34.1770 90° East  Level FlightAware Approximate
Wed 11:44:00 PM 52.1014 -33.9599 91° East  Level FlightAware Approximate
Wed 11:45:00 PM 52.0993 -33.7429 91° East  Level FlightAware Approximate
Wed 11:46:00 PM 52.0967 -33.5258 91° East  Level FlightAware Approximate
Wed 11:47:00 PM 52.0938 -33.3088 91° East  Level FlightAware Approximate
Wed 11:48:00 PM 52.0905 -33.0918 91° East  Level FlightAware Approximate
Wed 11:49:00 PM 52.0868 -32.8748 92° East  Level FlightAware Approximate
Wed 11:50:00 PM 52.0827 -32.6579 92° East  Level FlightAware Approximate
Wed 11:51:00 PM 52.0782 -32.4410 92° East  Level FlightAware Approximate
Wed 11:52:00 PM 52.0733 -32.2242 92° East  Level FlightAware Approximate
Wed 11:53:00 PM 52.0680 -32.0074 92° East  Level FlightAware Approximate
Wed 11:54:00 PM 52.0623 -31.7907 92° East  Level FlightAware Approximate
Wed 11:55:00 PM 52.0562 -31.5740 93° East  Level FlightAware Approximate
Wed 11:56:00 PM 52.0498 -31.3574 93° East  Level FlightAware Approximate
Wed 11:57:00 PM 52.0429 -31.1409 93° East  Level FlightAware Approximate
Wed 11:58:00 PM 52.0356 -30.9244 93° East  Level FlightAware Approximate
Wed 11:59:00 PM 52.0279 -30.7080 93° East  Level FlightAware Approximate
Thu 12:00:00 AM 52.0198 -30.4916 93° East  Level FlightAware Approximate
Thu 12:01:00 AM 52.0114 -30.2754 94° East  Level FlightAware Approximate
Thu 12:02:00 AM 52.0025 -30.0592 94° East  Level FlightAware Approximate
Thu 12:03:00 AM 52.0066 -29.8431 86° East  Level FlightAware Approximate
Thu 12:04:00 AM 52.0153 -29.6268 86° East  Level FlightAware Approximate
Thu 12:05:00 AM 52.0235 -29.4105 86° East  Level FlightAware Approximate
Thu 12:06:00 AM 52.0314 -29.1942 87° East  Level FlightAware Approximate
Thu 12:07:00 AM 52.0389 -28.9777 87° East  Level FlightAware Approximate
Thu 12:08:00 AM 52.0460 -28.7612 87° East  Level FlightAware Approximate
Thu 12:09:00 AM 52.0527 -28.5446 87° East  Level FlightAware Approximate
Thu 12:10:00 AM 52.0591 -28.3280 87° East  Level FlightAware Approximate
Thu 12:11:00 AM 52.0650 -28.1113 87° East  Level FlightAware Approximate
Thu 12:12:00 AM 52.0705 -27.8946 88° East  Level FlightAware Approximate
Thu 12:13:00 AM 52.0756 -27.6777 88° East  Level FlightAware Approximate
Thu 12:14:00 AM 52.0803 -27.4609 88° East  Level FlightAware Approximate
Thu 12:15:00 AM 52.0846 -27.2440 88° East  Level FlightAware Approximate
Thu 12:16:00 AM 52.0886 -27.0270 88° East  Level FlightAware Approximate
Thu 12:17:00 AM 52.0921 -26.8101 88° East  Level FlightAware Approximate
Thu 12:18:00 AM 52.0952 -26.5931 89° East  Level FlightAware Approximate
Thu 12:19:00 AM 52.0979 -26.3760 89° East  Level FlightAware Approximate
Thu 12:20:00 AM 52.1003 -26.1590 89° East  Level FlightAware Approximate
Thu 12:21:00 AM 52.1022 -25.9419 89° East  Level FlightAware Approximate
Thu 12:22:00 AM 52.1037 -25.7248 89° East  Level FlightAware Approximate
Thu 12:23:00 AM 52.1048 -25.5077 89° East  Level FlightAware Approximate
Thu 12:24:00 AM 52.1056 -25.2905 90° East  Level FlightAware Approximate
Thu 12:25:00 AM 52.1059 -25.0734 90° East  Level FlightAware Approximate
Thu 12:26:00 AM 52.1058 -24.8563 90° East  Level FlightAware Approximate
Thu 12:27:00 AM 52.1054 -24.6392 90° East  Level FlightAware Approximate
Thu 12:28:00 AM 52.1045 -24.4220 90° East  Level FlightAware Approximate
Thu 12:29:00 AM 52.1033 -24.2049 90° East  Level FlightAware Approximate
Thu 12:30:00 AM 52.1016 -23.9878 91° East  Level FlightAware Approximate
Thu 12:31:00 AM 52.0995 -23.7708 91° East  Level FlightAware Approximate
Thu 12:32:00 AM 52.0971 -23.5537 91° East  Level FlightAware Approximate
Thu 12:33:00 AM 52.0942 -23.3367 91° East  Level FlightAware Approximate
Thu 12:34:00 AM 52.0910 -23.1197 91° East  Level FlightAware Approximate
Thu 12:35:00 AM 52.0873 -22.9027 91° East  Level FlightAware Approximate
Thu 12:36:00 AM 52.0833 -22.6858 92° East  Level FlightAware Approximate
Thu 12:37:00 AM 52.0788 -22.4689 92° East  Level FlightAware Approximate
Thu 12:38:00 AM 52.0740 -22.2521 92° East  Level FlightAware Approximate
Thu 12:39:00 AM 52.0687 -22.0353 92° East  Level FlightAware Approximate
Thu 12:40:00 AM 52.0631 -21.8185 92° East  Level FlightAware Approximate
Thu 12:41:00 AM 52.0570 -21.6019 93° East  Level FlightAware Approximate
Thu 12:42:00 AM 52.0506 -21.3852 93° East  Level FlightAware Approximate
Thu 12:43:00 AM 52.0438 -21.1687 93° East  Level FlightAware Approximate
Thu 12:44:00 AM 52.0365 -20.9522 93° East  Level FlightAware Approximate
Thu 12:45:00 AM 52.0289 -20.7358 93° East  Level FlightAware Approximate
Thu 12:46:00 AM 52.0209 -20.5194 93° East  Level FlightAware Approximate
Thu 12:47:00 AM 52.0125 -20.3032 94° East  Level FlightAware Approximate
Thu 12:48:00 AM 52.0037 -20.0870 94° East  Level FlightAware Approximate
Thu 12:49:00 AM 52.0048 -19.8708 86° East  Level FlightAware Approximate
Thu 12:50:00 AM 52.0126 -19.6545 87° East  Level FlightAware Approximate
Thu 12:51:00 AM 52.0199 -19.4382 87° East  Level FlightAware Approximate
Thu 12:52:00 AM 52.0269 -19.2217 87° East  Level FlightAware Approximate
Thu 12:53:00 AM 52.0335 -19.0052 87° East  Level FlightAware Approximate
Thu 12:54:00 AM 52.0397 -18.7882 87° East  Level FlightAware Approximate
Thu 12:55:00 AM 52.0455 -18.5712 87° East  Level FlightAware Approximate
Thu 12:56:00 AM 52.0508 -18.3541 88° East  Level FlightAware Approximate
Thu 12:57:00 AM 52.0558 -18.1369 88° East  Level FlightAware Approximate
Thu 12:58:00 AM 52.0604 -17.9198 88° East  Level FlightAware Approximate
Thu 12:59:00 AM 52.0646 -17.7025 88° East  Level FlightAware Approximate
Thu 01:00:00 AM 52.0684 -17.4852 88° East  Level FlightAware Approximate
Thu 01:01:00 AM 52.0718 -17.2679 88° East  Level FlightAware Approximate
Thu 01:02:00 AM 52.0748 -17.0506 89° East  Level FlightAware Approximate
Thu 01:03:00 AM 52.0774 -16.8332 89° East  Level FlightAware Approximate
Thu 01:04:00 AM 52.0796 -16.6158 89° East  Level FlightAware Approximate
Thu 01:05:00 AM 52.0814 -16.3984 89° East  Level FlightAware Approximate
Thu 01:06:00 AM 52.0827 -16.1810 89° East  Level FlightAware Approximate
Thu 01:07:00 AM 52.0837 -15.9635 89° East  Level FlightAware Approximate
Thu 01:08:00 AM 52.0843 -15.7461 90° East  Level FlightAware Approximate
Thu 01:09:00 AM 52.0845 -15.5286 90° East  Level FlightAware Approximate
Thu 01:10:00 AM 52.0843 -15.3112 90° East  Level FlightAware Approximate
Thu 01:11:00 AM 52.0837 -15.0937 90° East  Level FlightAware Approximate
Thu 01:12:00 AM 52.0837 -14.8763 90° East  Level FlightAware Approximate
Thu 01:13:00 AM 52.0840 -14.6588 90° East  Level FlightAware Approximate
Thu 01:14:00 AM 52.0839 -14.4414 90° East  Level FlightAware Approximate
Thu 01:15:00 AM 52.0835 -14.2239 90° East  Level FlightAware Approximate
Thu 01:16:00 AM 52.0826 -14.0065 90° East  Level FlightAware Approximate
Thu 01:17:00 AM 52.0813 -13.7890 90° East  Level FlightAware Approximate
Thu 01:18:00 AM 52.0796 -13.5716 91° East  Level FlightAware Approximate
Thu 01:19:00 AM 52.0775 -13.3542 91° East  Level FlightAware Approximate
Thu 01:20:00 AM 52.0751 -13.1368 91° East  Level FlightAware Approximate
Thu 01:21:00 AM 52.0722 -12.9195 91° East  Level FlightAware Approximate
Thu 01:22:00 AM 52.0689 -12.7022 91° East  Level FlightAware Approximate
Thu 01:22:46 AM 51.9750 -11.5950 92° East 446 513 37,000  Level FlightAware ADS-B
Thu 01:23:00 AM 52.0647 -12.4849 92° East  Level FlightAware Approximate
Thu 01:23:21 AM 51.9730 -11.4810 92° East 446 513 37,000  Level FlightAware ADS-B
Thu 01:24:21 AM 51.9690 -11.2820 92° East 446 513 37,000  Level FlightAware ADS-B
Thu 01:25:36 AM 51.9640 -11.0250 92° East 445 512 37,000  Level FlightAware ADS-B
Thu 01:26:11 AM 51.9610 -10.9090 92° East 444 511 37,000  Level FlightAware ADS-B
Thu 01:26:51 AM 51.9580 -10.7820 92° East 444 511 37,000  Level FlightAware ADS-B
Thu 01:27:41 AM 51.9540 -10.6200 92° East 444 511 37,000  Level FlightAware ADS-B
Thu 01:28:21 AM 51.9500 -10.4750 93° East 444 511 37,000  Level FlightAware ADS-B
Thu 01:29:01 AM 51.9470 -10.3460 92° East 444 511 37,000  Level FlightAware ADS-B
Thu 01:30:14 AM 51.9400 -10.1060 93° East 444 511 37,000  Level FlightAware ADS-B
Thu 01:30:58 AM 51.9360 -9.9530 92° East 444 511 37,000  Level FlightAware ADS-B
Thu 01:31:38 AM 51.9310 -9.8210 93° East 444 511 37,000  Level FlightAware ADS-B
Thu 01:32:23 AM 51.9270 -9.6750 92° East 444 511 37,000  Level FlightAware ADS-B
Thu 01:33:03 AM 51.9220 -9.5380 93° East 445 512 37,000  Level FlightAware ADS-B
Thu 01:33:39 AM 51.9180 -9.4200 93° East 444 511 37,000  Level FlightAware ADS-B
Thu 01:34:25 AM 51.9130 -9.2750 93° East 444 511 37,000  Level FlightAware ADS-B
Thu 01:35:10 AM 51.9070 -9.1260 94° East 445 512 37,000  Level FlightAware ADS-B
Thu 01:35:50 AM 51.9019 -8.9792 94° East 452 520 37,000  Level FlightAware UK
Thu 01:36:01 AM 51.9010 -8.9510 94° East 445 512 37,000  Level FlightAware ADS-B
Thu 01:36:20 AM 51.8980 -8.8792 94° East 452 520 37,000  Level FlightAware UK
Thu 01:36:38 AM 51.8955 -8.8192 94° East 454 522 37,000  Level FlightAware UK
Thu 01:36:45 AM 51.8940 -8.8010 94° East 446 513 37,000  Level FlightAware ADS-B
Thu 01:37:02 AM 51.8922 -8.7396 94° East 454 522 37,000  Level FlightAware UK
Thu 01:37:20 AM 51.8896 -8.6799 94° East 452 520 37,000  Level FlightAware UK
Thu 01:37:25 AM 51.8890 -8.6760 94° East 445 512 37,000  Level FlightAware ADS-B
Thu 01:37:44 AM 51.8861 -8.6001 94° East 452 520 37,000  Level FlightAware UK
Thu 01:38:02 AM 51.8836 -8.5404 94° East 450 518 37,000  Level FlightAware UK
Thu 01:38:07 AM 51.8840 -8.5410 94° East 446 513 37,000  Level FlightAware ADS-B
Thu 01:38:26 AM 51.8802 -8.4609 94° East 452 520 37,000  Level FlightAware UK
Thu 01:38:44 AM 51.8774 -8.4011 94° East 452 520 37,000  Level FlightAware UK
Thu 01:38:52 AM 51.8770 -8.3850 94° East 446 513 37,000  Level FlightAware ADS-B
Thu 01:39:08 AM 51.8739 -8.3214 94° East 452 520 37,000  Level FlightAware UK
Thu 01:39:26 AM 51.8711 -8.2609 94° East 452 520 37,000  Level FlightAware UK
Thu 01:39:33 AM 51.8700 -8.2410 94° East 447 514 37,000  Level FlightAware ADS-B
Thu 01:39:50 AM 51.8677 -8.1811 94° East 452 520 37,000  Level FlightAware UK
Thu 01:40:08 AM 51.8654 -8.1210 94° East 452 520 37,000  Level FlightAware UK
Thu 01:40:15 AM 51.8640 -8.1030 94° East 447 514 37,000  Level FlightAware ADS-B
Thu 01:40:32 AM 51.8620 -8.0408 94° East 452 520 37,000  Level FlightAware UK
Thu 01:40:50 AM 51.8591 -7.9809 94° East 452 520 37,000  Level FlightAware UK
Thu 01:41:00 AM 51.8570 -7.9560 94° East 447 514 37,000  Level FlightAware ADS-B
Thu 01:41:20 AM 51.8539 -7.8812 94° East 452 520 37,000  Level FlightAware UK
Thu 01:41:38 AM 51.8508 -7.8215 95° East 452 520 37,000  Level FlightAware UK
Thu 01:41:39 AM 51.8510 -7.8220 95° East 447 514 37,000  Level FlightAware ADS-B
Thu 01:41:56 AM 51.8478 -7.7618 95° East 452 520 37,000  Level FlightAware UK
Thu 01:42:14 AM 51.8448 -7.7021 95° East 450 518 37,000  Level FlightAware UK
Thu 01:42:21 AM 51.8440 -7.6840 95° East 446 513 37,000  Level FlightAware ADS-B
Thu 01:42:38 AM 51.8410 -7.6225 95° East 450 518 37,000  Level FlightAware UK
Thu 01:42:56 AM 51.8380 -7.5628 95° East 450 518 37,000  Level FlightAware UK
Thu 01:43:03 AM 51.8370 -7.5510 95° East 446 513 37,000  Level FlightAware ADS-B
Thu 01:43:20 AM 51.8338 -7.4834 95° East 450 518 37,000  Level FlightAware UK
Thu 01:43:38 AM 51.8307 -7.4238 95° East 452 520 37,000  Level FlightAware UK
Thu 01:43:46 AM 51.8290 -7.4040 95° East 446 513 37,000  Level FlightAware ADS-B
Thu 01:44:02 AM 51.8265 -7.3443 95° East 456 525 37,000  Level FlightAware UK
Thu 01:44:20 AM 51.8232 -7.2848 95° East 456 525 37,000  Level FlightAware UK
Thu 01:44:30 AM 51.8220 -7.2590 95° East 445 512 37,000  Level FlightAware ADS-B
Thu 01:44:50 AM 51.8182 -7.1856 95° East 454 522 37,000  Level FlightAware UK
Thu 01:45:04 AM 51.8160 -7.1460 95° East 444 511 37,000  Level FlightAware ADS-B
Thu 01:45:08 AM 51.8150 -7.1263 95° East 452 520 37,000  Level FlightAware UK
Thu 01:45:21 AM 51.8129 -7.0860 95° East 454 522 37,000  Level FlightAware UK
Thu 01:45:39 AM 51.8094 -7.0266 95° East 454 522 37,000  Level FlightAware UK
Thu 01:45:55 AM 51.8060 -6.9770 95° East 443 510 37,000  Level FlightAware ADS-B
Thu 01:46:15 AM 51.8025 -6.9084 95° East 452 520 37,000  Level FlightAware UK
Thu 01:46:33 AM 51.7990 -6.8493 95° East 450 518 37,000  Level FlightAware UK
Thu 01:46:35 AM 51.7990 -6.8450 95° East 442 509 37,000  Level FlightAware ADS-B
Thu 01:46:51 AM 51.7956 -6.7904 95° East 450 518 37,000  Level FlightAware UK
Thu 01:47:09 AM 51.7922 -6.7316 95° East 448 516 37,000  Level FlightAware UK
Thu 01:47:15 AM 51.7910 -6.7130 95° East 441 507 37,000  Level FlightAware ADS-B
Thu 01:47:33 AM 51.7876 -6.6532 95° East 446 513 37,000  Level FlightAware UK
Thu 01:47:51 AM 51.7842 -6.5945 95° East 448 516 37,000  Level FlightAware UK
Thu 01:48:01 AM 51.7830 -6.5640 95° East 441 507 37,000  Level FlightAware ADS-B
Thu 01:48:21 AM 51.7795 -6.4964 95° East 446 513 37,000  Level FlightAware UK
Thu 01:48:39 AM 51.7778 -6.4373 93° East 448 516 37,000  Level FlightAware UK
Thu 01:48:41 AM 51.7790 -6.4300 93° East 440 506 37,000  Level FlightAware ADS-B
Thu 01:48:57 AM 51.7768 -6.3783 93° East 448 516 37,000  Level FlightAware UK
Thu 01:49:15 AM 51.7751 -6.3194 93° East 446 513 37,000  Level FlightAware UK
Thu 01:49:22 AM 51.7740 -6.3000 93° East 440 506 37,000  Level FlightAware ADS-B
Thu 01:49:39 AM 51.7726 -6.2409 93° East 446 513 37,000  Level FlightAware UK
Thu 01:49:57 AM 51.7706 -6.1822 93° East 444 511 37,000  Level FlightAware UK
Thu 01:50:06 AM 51.7690 -6.1550 93° East 439 505 37,000  Level FlightAware ADS-B
Thu 01:50:21 AM 51.7675 -6.1040 93° East 442 509 37,000  Level FlightAware UK
Thu 01:50:39 AM 51.7650 -6.0446 94° East 442 509 37,000  Level FlightAware UK
Thu 01:50:46 AM 51.7640 -6.0280 94° East 439 505 37,000  Level FlightAware ADS-B
Thu 01:51:15 AM 51.7599 -5.9271 94° East 444 511 37,000  Level FlightAware UK
Thu 01:51:29 AM 51.7580 -5.8830 94° East 439 505 37,000  Level FlightAware ADS-B
Thu 01:51:45 AM 51.7558 -5.8292 94° East 444 511 37,000  Level FlightAware UK
Thu 01:52:03 AM 51.7533 -5.7704 94° East 444 511 37,000  Level FlightAware UK
Thu 01:52:11 AM 51.7520 -5.7460 94° East 439 505 37,000  Level FlightAware ADS-B
Thu 01:52:27 AM 51.7500 -5.6921 94° East 448 516 37,000  Level FlightAware UK
Thu 01:52:45 AM 51.7476 -5.6333 94° East 448 516 37,000  Level FlightAware UK
Thu 01:52:53 AM 51.7460 -5.6090 94° East 441 507 37,000  Level FlightAware ADS-B
Thu 01:53:09 AM 51.7444 -5.5549 94° East 450 518 37,000  Level FlightAware UK
Thu 01:53:27 AM 51.7419 -5.4960 94° East 450 518 37,000  Level FlightAware UK
Thu 01:53:33 AM 51.7410 -5.4780 94° East 441 507 37,000  Level FlightAware ADS-B
Thu 01:53:51 AM 51.7385 -5.4175 94° East 450 518 37,000  Level FlightAware UK
Thu 01:54:09 AM 51.7357 -5.3579 94° East 448 516 37,000  Level FlightAware UK
Thu 01:54:15 AM 51.7350 -5.3390 94° East 441 507 37,000  Level FlightAware ADS-B
Thu 01:54:33 AM 51.7320 -5.2795 94° East 448 516 37,000  Level FlightAware UK
Thu 01:54:51 AM 51.7293 -5.2213 94° East 448 516 37,000  Level FlightAware UK
Thu 01:54:59 AM 51.7280 -5.1950 94° East 441 507 37,000  Level FlightAware ADS-B
Thu 01:55:15 AM 51.7257 -5.1428 94° East 448 516 37,000  Level FlightAware UK
Thu 01:55:33 AM 51.7229 -5.0840 94° East 446 513 37,000  Level FlightAware UK
Thu 01:55:38 AM 51.7220 -5.0700 94° East 441 507 37,000  Level FlightAware ADS-B
Thu 01:56:15 AM 51.7164 -4.9462 94° East 446 513 37,000  Level FlightAware UK
Thu 01:56:23 AM 51.7150 -4.9220 94° East 441 507 37,000  Level FlightAware ADS-B
Thu 01:56:39 AM 51.7125 -4.8677 94° East 446 513 37,000  Level FlightAware UK
Thu 01:56:57 AM 51.7096 -4.8089 95° East 446 513 37,000  Level FlightAware UK
Thu 01:57:07 AM 51.7080 -4.7810 95° East 441 507 37,000  Level FlightAware ADS-B
Thu 01:57:27 AM 51.7048 -4.7107 95° East 446 513 37,000  Level FlightAware UK
Thu 01:57:45 AM 51.7017 -4.6517 95° East 450 518 37,000  Level FlightAware UK
Thu 01:57:45 AM 51.7020 -4.6540 95° East 442 509 37,000  Level FlightAware ADS-B
Thu 01:58:03 AM 51.6987 -4.5928 95° East 448 516 37,000  Level FlightAware UK
Thu 01:58:21 AM 51.6955 -4.5338 95° East 450 518 37,000  Level FlightAware UK
Thu 01:58:29 AM 51.6940 -4.5100 95° East 442 509 37,000  Level FlightAware ADS-B
Thu 01:58:45 AM 51.6914 -4.4552 95° East 448 516 37,000  Level FlightAware UK
Thu 01:59:03 AM 51.6884 -4.3963 95° East 448 516 37,000  Level FlightAware UK
Thu 01:59:13 AM 51.6870 -4.3650 95° East 442 509 37,000  Level FlightAware ADS-B
Thu 01:59:33 AM 51.6832 -4.2976 95° East 450 518 37,000  Level FlightAware UK
Thu 01:59:51 AM 51.6798 -4.2387 95° East 448 516 37,000  Level FlightAware UK
Thu 01:59:53 AM 51.6800 -4.2350 95° East 442 509 37,000  Level FlightAware ADS-B
Thu 02:00:09 AM 51.6765 -4.1798 95° East 448 516 37,000  Level FlightAware UK
Thu 02:00:27 AM 51.6732 -4.1210 95° East 448 516 37,000  Level FlightAware UK
Thu 02:00:34 AM 51.6730 -4.1280 95° East 441 507 37,000  Level FlightAware ADS-B
Thu 02:00:57 AM 51.6677 -4.0229 95° East 450 518 37,000  Level FlightAware UK
Thu 02:01:13 AM 51.6650 -3.9760 95° East 442 509 37,000  Level FlightAware ADS-B
Thu 02:01:15 AM 51.6644 -3.9640 95° East 448 516 37,000  Level FlightAware UK
Thu 02:01:39 AM 51.6600 -3.8849 95° East 448 516 37,000  Level FlightAware UK
Thu 02:01:54 AM 51.6570 -3.8410 95° East 442 509 37,000  Level FlightAware ADS-B
Thu 02:01:57 AM 51.6566 -3.8260 95° East 448 516 37,000  Level FlightAware UK
Thu 02:02:09 AM 51.6543 -3.7868 95° East 448 516 37,000  Level FlightAware UK
Thu 02:02:27 AM 51.6508 -3.7279 96° East 448 516 37,000  Level FlightAware UK
Thu 02:02:40 AM 51.6480 -3.6900 96° East 443 510 37,000  Level FlightAware ADS-B
Thu 02:02:57 AM 51.6447 -3.6298 96° East 448 516 37,000  Level FlightAware UK
Thu 02:03:15 AM 51.6413 -3.5709 95° East 450 518 37,000  Level FlightAware UK
Thu 02:03:24 AM 51.6400 -3.5460 95° East 443 510 37,000  Level FlightAware ADS-B
Thu 02:03:40 AM 51.6364 -3.4917 95° East 448 516 37,000  Level FlightAware UK
Thu 02:03:48 AM 51.6350 -3.4680 95° East 443 510 37,000  Level FlightAware ADS-B
Thu 02:04:04 AM 51.6315 -3.4134 95° East 448 516 37,000  Level FlightAware UK
Thu 02:04:22 AM 51.6279 -3.3546 95° East 443 510 37,000  Level FlightAware ADS-B
Thu 02:04:40 AM 51.6244 -3.2958 95° East 448 516 37,000  Level FlightAware UK
Thu 02:04:53 AM 51.6216 -3.2551 95° East 442 509 37,000  Level FlightAware ADS-B
Thu 02:05:10 AM 51.6180 -3.1979 95° East 450 518 37,000  Level FlightAware UK
Thu 02:05:32 AM 51.6133 -3.1251 95° East 442 509 37,000  Level FlightAware ADS-B
Thu 02:05:52 AM 51.6091 -3.0601 95° East 450 518 37,000  Level FlightAware UK
Thu 02:06:03 AM 51.6071 -3.0267 95° East 442 509 37,000  Level FlightAware ADS-B
Thu 02:06:22 AM 51.6029 -2.9623 95° East 450 518 37,000  Level FlightAware UK
Thu 02:06:34 AM 51.6003 -2.9235 95° East 442 509 37,000  Level FlightAware ADS-B
Thu 02:06:52 AM 51.5964 -2.8647 95° East 450 518 37,000  Level FlightAware UK
Thu 02:07:06 AM 51.5933 -2.8198 95° East 441 507 37,000  Level FlightAware ADS-B
Thu 02:07:22 AM 51.5899 -2.7667 95° East 448 516 37,000  Level FlightAware UK
Thu 02:07:37 AM 51.5865 -2.7189 95° East 441 507 37,000  Level FlightAware ADS-B
Thu 02:07:52 AM 51.5831 -2.6694 95° East 448 516 37,000  Level FlightAware UK
Thu 02:08:08 AM 51.5796 -2.6193 95° East 441 507 37,000  Level FlightAware ADS-B
Thu 02:08:28 AM 51.5750 -2.5522 95° East 448 516 37,000  Level FlightAware UK
Thu 02:08:39 AM 51.5728 -2.5191 95° East 440 506 37,000  Level FlightAware ADS-B
Thu 02:08:58 AM 51.5684 -2.4552 95° East 448 516 37,000  Level FlightAware UK
Thu 02:09:11 AM 51.5655 -2.4149 95° East 439 505 37,000  Level FlightAware ADS-B
Thu 02:09:28 AM 51.5615 -2.3584 95° East 446 513 37,000  Level FlightAware UK
Thu 02:09:42 AM 51.5582 -2.3138 95° East 438 504 37,000  Level FlightAware ADS-B
Thu 02:10:04 AM 51.5532 -2.2424 95° East 448 516 37,000  Level FlightAware UK
Thu 02:10:16 AM 51.5504 -2.2048 95° East 438 504 37,000  Level FlightAware ADS-B
Thu 02:10:34 AM 51.5462 -2.1459 95° East 448 516 37,000  Level FlightAware UK
Thu 02:10:48 AM 51.5430 -2.1022 95° East 438 504 37,000  Level FlightAware ADS-B
Thu 02:11:04 AM 51.5391 -2.0488 95° East 448 516 37,000  Level FlightAware UK
Thu 02:11:18 AM 51.5357 -2.0049 95° East 437 503 37,000  Level FlightAware ADS-B
Thu 02:11:34 AM 51.5318 -1.9525 95° East 448 516 37,000  Level FlightAware UK
Thu 02:11:51 AM 51.5280 -1.9015 95° East 436 502 37,000  Level FlightAware ADS-B
Thu 02:12:21 AM 51.5207 -1.8040 97° East 436 502 37,000  Level FlightAware ADS-B
Thu 02:12:52 AM 51.5132 -1.7052 97° East 435 501 37,000  Level FlightAware ADS-B
Thu 02:13:11 AM 51.5086 -1.6447 97° East 448 516 37,000  Level FlightAware UK
Thu 02:13:22 AM 51.5057 -1.6084 97° East 434 499 37,000  Level FlightAware ADS-B
Thu 02:13:41 AM 51.5010 -1.5485 97° East 446 513 37,000  Level FlightAware UK
Thu 02:13:55 AM 51.4976 -1.5055 97° East 434 499 37,000  Level FlightAware ADS-B
Thu 02:14:17 AM 51.4920 -1.4339 97° East 446 513 37,000  Level FlightAware UK
Thu 02:14:25 AM 51.4898 -1.4078 97° East 434 499 37,000  Level FlightAware ADS-B
Thu 02:14:47 AM 51.4844 -1.3386 97° East 446 513 37,000  Level FlightAware UK
Thu 02:14:56 AM 51.4822 -1.3109 97° East 433 498 37,000  Level FlightAware ADS-B
Thu 02:15:17 AM 51.4767 -1.2433 97° East 446 513 37,000  Level FlightAware UK
Thu 02:15:27 AM 51.4741 -1.2110 97° East 433 498 37,000  Level FlightAware ADS-B
Thu 02:15:47 AM 51.4691 -1.1477 97° East 446 513 37,000  Level FlightAware UK
Thu 02:15:58 AM 51.4662 -1.1134 97° East 432 497 37,000  Level FlightAware ADS-B
Thu 02:16:17 AM 51.4612 -1.0534 97° East 444 511 37,000  Level FlightAware UK
Thu 02:16:31 AM 51.4577 -1.0101 97° East 432 497 37,000  Level FlightAware ADS-B
Thu 02:17:04 AM 51.4490 -0.9058 98° East 432 497 37,000  Level FlightAware ADS-B
Thu 02:17:23 AM 51.4438 -0.8438 98° East 444 511 37,000  Level FlightAware UK
Thu 02:17:34 AM 51.4409 -0.8095 98° East 432 497 37,000  Level FlightAware ADS-B
Thu 02:17:53 AM 51.4358 -0.7492 98° East 444 511 37,000  Level FlightAware UK
Thu 02:18:05 AM 51.4326 -0.7126 98° East 431 496 37,000  Level FlightAware ADS-B
Thu 02:18:29 AM 51.4260 -0.6350 98° East 444 511 37,000  Level FlightAware UK
Thu 02:18:37 AM 51.4241 -0.6123 98° East 431 496 37,000  Level FlightAware ADS-B
Thu 02:19:08 AM 51.4156 -0.5138 98° East 431 496 37,000  Level FlightAware ADS-B
Thu 02:19:24 AM 51.4111 -0.4641 98° East 442 509 37,000  Level FlightAware UK
Thu 02:19:39 AM 51.4070 -0.4175 98° East 430 495 37,000  Level FlightAware ADS-B
Thu 02:20:00 AM 51.4011 -0.3509 98° East 440 506 37,000  Level FlightAware UK
Thu 02:20:09 AM 51.3986 -0.3211 98° East 431 496 37,000  Level FlightAware ADS-B
Thu 02:20:41 AM 51.3896 -0.2203 98° East 431 496 37,000  Level FlightAware ADS-B
Thu 02:21:00 AM 51.3844 -0.1622 98° East 442 509 37,000  Level FlightAware UK
Thu 02:21:15 AM 51.3800 -0.1152 98° East 431 496 37,000  Level FlightAware ADS-B
Thu 02:21:30 AM 51.3758 -0.0678 98° East 442 509 37,000  Level FlightAware UK
Thu 02:21:47 AM 51.3707 -0.0122 98° East 431 496 37,000  Level FlightAware ADS-B
Thu 02:22:18 AM 51.3618 0.0851 98° East 432 497 37,000  Level FlightAware ADS-B
Thu 02:22:36 AM 51.3565 0.1413 98° East 442 509 37,000  Level FlightAware UK
Thu 02:22:49 AM 51.3526 0.1820 98° East 432 497 37,000  Level FlightAware ADS-B
Thu 02:23:06 AM 51.3475 0.2365 98° East 442 509 37,000  Level FlightAware UK
Thu 02:23:19 AM 51.3436 0.2776 98° East 433 498 37,000  Level FlightAware ADS-B
Thu 02:24:00 AM 51.3316 0.4067 98° East 442 509 37,000  Level FlightAware UK
Thu 02:24:09 AM 51.3289 0.4342 98° East 433 498 37,000  Level FlightAware ADS-B
Thu 02:24:24 AM 51.3243 0.4823 98° East 442 509 37,000  Level FlightAware UK
Thu 02:24:42 AM 51.3189 0.5380 98° East 433 498 37,000  Level FlightAware ADS-B
Thu 02:25:15 AM 51.3088 0.6423 99° East 434 499 37,000  Level FlightAware ADS-B
Thu 02:25:30 AM 51.3041 0.6906 99° East 442 509 37,000  Level FlightAware UK
Thu 02:25:47 AM 51.2991 0.7418 99° East 434 499 37,000  Level FlightAware ADS-B
Thu 02:26:06 AM 51.2929 0.8049 99° East 444 511 37,000  Level FlightAware UK
Thu 02:26:18 AM 51.2892 0.8420 99° East 435 501 37,000  Level FlightAware ADS-B
Thu 02:26:36 AM 51.2836 0.8998 99° East 442 509 37,000  Level FlightAware UK
Thu 02:26:50 AM 51.2791 0.9429 99° East 436 502 37,000  Level FlightAware ADS-B
Thu 02:27:06 AM 51.2739 0.9946 99° East 442 509 37,000  Level FlightAware UK
Thu 02:27:21 AM 51.2693 1.0397 99° East 436 502 37,000  Level FlightAware ADS-B
Thu 02:27:55 AM 51.2585 1.1472 99° East 442 509 37,000  Level FlightAware UK
Thu 02:28:13 AM 51.2527 1.2042 99° East 442 509 37,000  Level FlightAware UK
Thu 02:28:24 AM 51.2490 1.2310 99° East 437 503 37,000  Level FlightAware ADS-B (KGJT)
Thu 02:28:49 AM 51.2386 1.3181 99° East 444 511 37,000  Level FlightAware UK
Thu 02:29:10 AM 51.2300 1.3840 99° East 438 504 37,000  Level FlightAware ADS-B
Thu 02:29:25 AM 51.2242 1.4319 99° East 444 511 37,000  Level FlightAware UK
Thu 02:29:49 AM 51.2146 1.5084 101° East 444 511 37,000  Level FlightAware UK
Thu 02:29:50 AM 51.2140 1.5090 101° East 439 505 37,000  Level FlightAware ADS-B
Thu 02:30:07 AM 51.2074 1.5655 101° East 444 511 37,000  Level FlightAware UK
Thu 02:30:25 AM 51.2002 1.6226 101° East 444 511 37,000  Level FlightAware UK
Thu 02:30:25 AM 51.2010 1.6170 101° East 440 506 37,000  Level FlightAware ADS-B
Thu 02:30:55 AM 51.1882 1.7178 101° East 446 513 37,000  Level FlightAware UK
Thu 02:31:09 AM 51.1840 1.7560 101° East 441 507 37,000  Level FlightAware ADS-B
Thu 02:31:25 AM 51.1762 1.8139 101° East 446 513 37,000  Level FlightAware UK
Thu 02:31:43 AM 51.1692 1.8707 101° East 446 513 37,000  Level FlightAware UK
Thu 02:32:05 AM 51.1610 1.9350 101° East 443 510 37,000  Level FlightAware ADS-B
Thu 02:32:07 AM 51.1595 1.9480 101° East 446 513 37,000  Level FlightAware UK
Thu 02:32:25 AM 51.1521 2.0054 101° East 446 513 37,000  Level FlightAware UK
Thu 02:32:49 AM 51.1420 2.0820 102° East 446 513 37,000  Level FlightAware UK
Thu 02:32:53 AM 51.1410 2.0920 102° East 445 512 37,000  Level FlightAware ADS-B
Thu 02:33:13 AM 51.1320 2.1587 102° East 446 513 37,000  Level FlightAware UK
Thu 02:33:26 AM 51.1269 2.1981 102° East 445 512 37,000  Level FlightAware ADS-B
Thu 02:33:56 AM 51.1140 2.2967 102° East 445 512 37,000  Level FlightAware ADS-B
Thu 02:34:27 AM 51.1010 2.3946 102° East 447 514 37,000  Level FlightAware ADS-B
Thu 02:34:43 AM 51.0939 2.4476 102° East 448 516 37,000  Level FlightAware UK
Thu 02:34:58 AM 51.0880 2.4930 102° East 447 514 37,000  Level FlightAware ADS-B
Thu 02:35:11 AM 51.0822 2.5358 102° East 448 516 37,000  Level FlightAware ADS-B
Thu 02:35:31 AM 51.0735 2.6016 102° East 448 516 37,000  Level FlightAware UK
Thu 02:35:54 AM 51.0638 2.6727 102° East 448 516 37,000  Level FlightAware ADS-B
Thu 02:36:37 AM 51.0446 2.8131 102° East 444 511 37,000  Level FlightAware UK
Thu 02:37:01 AM 51.0343 2.8902 102° East 446 513 37,000  Level FlightAware UK
Thu 02:37:05 AM 51.0330 2.8990 102° East 449 517 37,000  Level FlightAware ADS-B
Thu 02:37:31 AM 51.0213 2.9868 102° East 450 518 37,000  Level FlightAware UK
Thu 02:37:43 AM 51.0160 3.0240 102° East 449 517 37,000  Level FlightAware ADS-B
Thu 02:38:07 AM 51.0049 3.1025 102° East 448 516 37,000  Level FlightAware UK
Thu 02:38:29 AM 50.9950 3.1730 102° East 450 518 37,000  Level FlightAware ADS-B
Thu 02:39:07 AM 50.9779 3.2962 102° East 448 516 37,000  Level FlightAware UK
Thu 02:39:07 AM 50.9780 3.2920 102° East 450 518 37,000  Level FlightAware ADS-B
Thu 02:39:25 AM 50.9696 3.3539 102° East 448 516 37,000  Level FlightAware UK
Thu 02:39:43 AM 50.9616 3.4118 102° East 448 516 37,000  Level FlightAware UK
Thu 02:39:49 AM 50.9590 3.4280 102° East 449 517 37,000  Level FlightAware ADS-B
Thu 02:40:30 AM 50.9420 3.5520 102° East 449 517 37,000  Level FlightAware ADS-B
Thu 02:40:49 AM 50.9316 3.6231 102° East 446 513 37,000  Level FlightAware UK
Thu 02:41:17 AM 50.9200 3.7010 102° East 448 516 37,000  Level FlightAware ADS-B
Thu 02:41:58 AM 50.9000 3.8390 103° East 447 514 37,000  Level FlightAware ADS-B
Thu 02:42:38 AM 50.8820 3.9640 103° East 446 513 37,000  Level FlightAware ADS-B
Thu 02:43:07 AM 50.8675 4.0621 103° East 442 509 37,000  Level FlightAware UK
Thu 02:43:22 AM 50.8610 4.1020 103° East 445 512 37,000  Level FlightAware ADS-B
Thu 02:43:37 AM 50.8534 4.1571 103° East 442 509 37,000  Level FlightAware UK
Thu 02:44:04 AM 50.8410 4.2410 103° East 444 511 37,000  Level FlightAware ADS-B
Thu 02:44:26 AM 50.8304 4.3092 103° East 442 509 37,000  Level FlightAware UK
Thu 02:44:39 AM 50.8260 4.3390 103° East 445 512 37,000  Level FlightAware ADS-B
Thu 02:44:44 AM 50.8219 4.3660 103° East 442 509 37,000  Level FlightAware UK
Thu 02:44:56 AM 50.8162 4.4039 103° East 442 509 37,000  Level FlightAware UK
Thu 02:45:14 AM 50.8075 4.4605 104° East 442 509 37,000  Level FlightAware UK
Thu 02:45:27 AM 50.8020 4.4980 104° East 444 511 37,000  Level FlightAware ADS-B
Thu 02:45:50 AM 50.7905 4.5739 104° East 442 509 37,000  Level FlightAware UK
Thu 02:46:08 AM 50.7820 4.6306 103° East 442 509 37,000  Level FlightAware UK
Thu 02:46:11 AM 50.7810 4.6370 103° East 443 510 37,000  Level FlightAware ADS-B
Thu 02:46:26 AM 50.7736 4.6874 103° East 1 1 37,000  Level FlightAware UK
Thu 02:46:54 AM 50.7600 4.7670 103° East 442 509 37,000  Level FlightAware ADS-B
Thu 02:47:35 AM 50.7410 4.8940 103° East 441 507 37,000  Level FlightAware ADS-B
Thu 02:48:11 AM 50.7240 5.0040 104° East 440 506 37,000  Level FlightAware ADS-B
Thu 02:48:58 AM 50.7020 5.1390 104° East 440 506 37,000  Level FlightAware ADS-B
Thu 02:49:35 AM 50.6850 5.2470 104° East 439 505 37,000  Level FlightAware ADS-B
Thu 02:50:19 AM 50.6590 5.4070 104° East 439 505 37,000  Level FlightAware ADS-B
Thu 02:51:00 AM 50.6390 5.5350 104° East 438 504 37,000  Level FlightAware ADS-B
Thu 02:51:44 AM 50.6160 5.6740 105° East 437 503 37,000  Level FlightAware ADS-B
Thu 02:52:28 AM 50.5950 5.8020 104° East 436 502 37,000  Level FlightAware ADS-B
Thu 02:53:06 AM 50.5750 5.9220 105° East 437 503 37,000  Level FlightAware ADS-B
Thu 02:53:52 AM 50.5520 6.0590 105° East 437 503 37,000  Level FlightAware ADS-B
Thu 02:54:34 AM 50.5300 6.1910 105° East 437 503 37,000  Level FlightAware ADS-B
Thu 02:55:16 AM 50.5140 6.2890 104° East 437 503 37,000  Level FlightAware ADS-B
Thu 02:55:55 AM 50.4900 6.4270 105° East 436 502 37,000  Level FlightAware ADS-B
Thu 02:56:37 AM 50.4650 6.5710 105° East 436 502 37,000  Level FlightAware ADS-B
Thu 02:57:19 AM 50.4360 6.6950 110° East 437 503 37,000  Level FlightAware ADS-B
Thu 02:58:12 AM 50.3970 6.8330 114° Southeast 438 504 37,000  Level FlightAware ADS-B
Thu 02:58:52 AM 50.3620 6.9550 114° Southeast 433 498 37,000  Level FlightAware ADS-B
Thu 02:59:37 AM 50.3230 7.0840 115° Southeast 437 503 37,000  Level FlightAware ADS-B
Thu 03:00:39 AM 50.2700 7.2680 114° Southeast 437 503 37,000  Level FlightAware ADS-B
Thu 03:01:16 AM 50.2430 7.3580 115° Southeast 437 503 37,000  Level FlightAware ADS-B
Thu 03:01:56 AM 50.2060 7.4830 115° Southeast 437 503 37,000  Level FlightAware ADS-B
Thu 03:02:44 AM 50.1700 7.6060 115° Southeast 436 502 37,000  Level FlightAware ADS-B
Thu 03:03:19 AM 50.1360 7.7210 115° Southeast 437 503 37,000  Level FlightAware ADS-B
Thu 03:04:07 AM 50.0950 7.8600 115° Southeast 438 504 37,000  Level FlightAware ADS-B
Thu 03:04:47 AM 50.0660 7.9570 115° Southeast 437 503 37,000  Level FlightAware ADS-B
Thu 03:05:29 AM 50.0260 8.0930 115° Southeast 438 504 37,000  Level FlightAware ADS-B
Thu 03:06:28 AM 49.9750 8.2620 115° Southeast 438 504 37,000  Level FlightAware ADS-B
Thu 03:07:08 AM 49.9400 8.3770 115° Southeast 439 505 37,000  Level FlightAware ADS-B
Thu 03:07:59 AM 49.8950 8.5240 115° Southeast 438 504 37,000  Level FlightAware ADS-B
Thu 03:08:47 AM 49.8550 8.6560 115° Southeast 439 505 37,000 -68 Level FlightAware ADS-B
Thu 03:09:27 AM 49.8210 8.7680 115° Southeast 441 507 36,900 -918 Descending FlightAware ADS-B
Thu 03:10:12 AM 49.7820 8.8930 116° Southeast 446 513 35,700 -1,295 Descending FlightAware ADS-B
Thu 03:10:55 AM 49.7410 9.0230 116° Southeast 437 503 35,000 -532 Descending FlightAware ADS-B
Thu 03:11:31 AM 49.7180 9.0980 115° Southeast 434 499 35,000  Level FlightAware ADS-B
Thu 03:12:17 AM 49.6710 9.2490 116° Southeast 431 496 35,000  Level FlightAware ADS-B
Thu 03:12:59 AM 49.6340 9.3660 116° Southeast 431 496 35,000 -370 Level FlightAware ADS-B
Thu 03:13:38 AM 49.5950 9.4560 124° Southeast 427 491 34,500 -1,215 Descending FlightAware ADS-B
Thu 03:14:18 AM 49.5440 9.5470 131° Southeast 427 491 33,400 -1,624 Descending FlightAware ADS-B
Thu 03:15:03 AM 49.4830 9.6520 132° Southeast 423 487 32,200 -1,047 Descending FlightAware ADS-B
Thu 03:15:44 AM 49.4340 9.7370 132° Southeast 425 489 31,900 -1,271 Descending FlightAware ADS-B
Thu 03:16:28 AM 49.3770 9.8360 131° Southeast 420 483 30,400 -2,195 Descending FlightAware ADS-B
Thu 03:17:06 AM 49.3290 9.9190 132° Southeast 427 491 28,900 -2,400 Descending FlightAware ADS-B
Thu 03:18:08 AM 49.2410 10.0690 132° Southeast 412 474 26,400 -1,510 Descending FlightAware ADS-B
Thu 03:19:41 AM 49.1240 10.2690 132° Southeast 403 464 25,000 -700 Descending FlightAware ADS-B
Thu 03:20:08 AM 49.0960 10.3180 131° Southeast 403 464 25,000 -415 Level FlightAware ADS-B
Thu 03:21:51 AM 48.9720 10.5120 127° Southeast 400 460 24,100 -904 Descending FlightAware ADS-B
Thu 03:22:00 AM 48.9458 10.6217 127° Southeast  Level Estimated
Thu 03:22:54 AM 48.8870 10.6510 133° Southeast 385 443 22,500  Level FlightAware ADS-B
Thu 03:23:42 AM 48.8380 10.7330 132° Southeast 385 443 22,500  Level FlightAware ADS-B
Thu 03:24:18 AM 48.8020 10.7940 132° Southeast 385 443 22,500  Level FlightAware ADS-B
Thu 03:25:06 AM 48.7530 10.8760 132° Southeast 385 443 22,500  Level FlightAware ADS-B
Thu 03:25:52 AM 48.7060 10.9550 132° Southeast 385 443 22,500 -8,954 Level FlightAware ADS-B
Thu 03:26:11 AM 48.6480 10.9820 163° South 342 394 12,800 -9,403 Descending FlightAware ADS-B
Thu 03:26:59 AM 48.5770 11.0000 170° South 310 357 12,000 -635 Descending FlightAware ADS-B
Thu 03:27:55 AM 48.5160 11.0360 159° South 256 295 11,700 -529 Descending FlightAware ADS-B
Thu 03:28:07 AM 48.5070 11.0610 119° Southeast 250 288 11,400 -1,333 Descending FlightAware ADS-B
Thu 03:28:22 AM 48.5060 11.0840 94° East 249 287 11,100 -625 Descending FlightAware ADS-B
Thu 03:28:55 AM 48.5090 11.1380 85° East 252 290 10,900 -750 Descending FlightAware ADS-B
Thu 03:29:34 AM 48.5140 11.2070 84° East 248 285 10,200 -698 Descending FlightAware ADS-B
Thu 03:30:21 AM 48.5210 11.2900 83° East 250 288 9,900 -575 Descending FlightAware ADS-B
Thu 03:30:47 AM 48.5240 11.3300 84° East 247 284 9,500 -1,368 Descending FlightAware ADS-B
Thu 03:31:18 AM 48.5300 11.3980 82° East 245 282 8,600 -1,023 Descending FlightAware ADS-B
Thu 03:32:15 AM 48.5250 11.4840 95° East 245 282 8,000 -600 Descending FlightAware ADS-B
Thu 03:32:28 AM 48.5080 11.4980 151° Southeast 241 277 7,900 -1,019 Descending FlightAware ADS-B
Thu 03:33:08 AM 48.4640 11.5090 171° South 230 265 7,100 -1,271 Descending FlightAware ADS-B
Thu 03:33:53 AM 48.4260 11.4760 210° Southwest 239 275 6,100 -1,301 Descending FlightAware ADS-B
Thu 03:34:31 AM 48.4200 11.4240 260° West 245 282 5,300 -1,104 Descending FlightAware ADS-B
Thu 03:35:58 AM 48.3500 11.3920 197° South 226 260 3,800 -882 Descending FlightAware ADS-B
Thu 03:36:13 AM 48.3440 11.4150 111° Southeast 204 235 3,800  Level FlightAware ADS-B
Thu 03:36:38 AM 48.3400 11.4520 99° East 204 235 3,800  Level FlightAware ADS-B
Thu 03:37:08 AM 48.3420 11.4930 86° East 203 234 3,800  Level FlightAware ADS-B
Thu 03:37:33 AM 48.3440 11.5280 85° East 195 224 3,800  Level FlightAware ADS-B
Thu 03:38:03 AM 48.3470 11.5640 83° East 162 186 3,800 -300 Level FlightAware ADS-B
Thu 03:38:33 AM 48.3490 11.5970 85° East 150 173 3,500 -667 Descending FlightAware ADS-B
Thu 03:38:48 AM 48.3510 11.6110 78° East 143 165 3,300 -686 Descending FlightAware ADS-B
Thu 03:39:08 AM 48.3520 11.6300 85° East 135 155 3,100 -720 Descending FlightAware ADS-B
Thu 03:39:38 AM 48.3540 11.6590 84° East 132 152 2,700 -677 Descending FlightAware ADS-B
Thu 03:40:10 AM 48.3560 11.6860 84° East 133 153 2,400 -667 Descending FlightAware ADS-B
Thu 03:40:23 AM 48.3570 11.7000 84° East 136 157 2,200 -698 Descending FlightAware ADS-B
Thu 03:40:53 AM 48.3600 11.7260 80° East 136 157 1,900 -764 Descending FlightAware ADS-B
Thu 03:41:18 AM 48.3620 11.7510 83° East 137 158 1,500 -655 Descending FlightAware ADS-B
Thu 03:41:48 AM 48.3640 11.7780 84° East 136 157 1,300 -400 Descending FlightAware ADS-B
Thu 03:42:13 AM 48.3650 11.7960 85° East 68 78 -3,120 Descending FlightAware ADS-B
Thu 03:42:43 AM 48.3650 11.8020 90° East 24 28  Level FlightAware ADS-B
Thu 03:43:13 AM 48.3630 11.8050 135° Southeast 14 16  Level FlightAware ADS-B
Thu 03:43:28 AM 48.3630 11.8060 90° East 13 15  Level FlightAware ADS-B
Thu 03:44:08 AM 48.3620 11.8040 233° Southwest 13 15  Level FlightAware ADS-B
Thu 03:44:48 AM 48.3610 11.7990 253° West 21 24  Level FlightAware ADS-B
Thu 03:45:18 AM 48.3610 11.7960 270° West 12 14  Level FlightAware ADS-B
Thu 03:45:48 AM 48.3610 11.7950 270° West 7 8  Level FlightAware ADS-B
Thu 03:46:39 AM 48.3580 11.7950 180° South 15 17  Level FlightAware ADS-B
Thu 03:47:38 AM 48.3540 11.7960 171° South 14 16  Level FlightAware ADS-B

Login

Don't have an account? Register now (free) for customized features, flight alerts, and more!